Time;durP1;ratioP1;P1;durP2;ratioP2;P2;SDS_P1;SDS_P2;PMS_P1;PMS_P2;Temp;Humidity;BMP_temperature;BMP_pressure;BME280_temperature;BME280_humidity;BME280_pressure;Samples;Min_cycle;Max_cycle;Signal;HPM_P1;HPM_P2
2023/03/11 00:01:02;;;;;;;2.67;1.05;;;9.10;99.90;;;;;;2603109;54;20026;31
2023/03/11 00:03:38;;;;;;;2.53;1.07;;;9.10;99.90;;;;;;2621649;46;20101;31
2023/03/11 00:06:14;;;;;;;2.10;1.23;;;9.10;99.90;;;;;;2703006;39;21148;31
2023/03/11 00:08:47;;;;;;;5.17;1.10;;;9.10;99.90;;;;;;2703715;38;22326;31
2023/03/11 00:11:22;;;;;;;2.65;0.95;;;9.10;99.90;;;;;;2622119;46;20242;31
2023/03/11 00:13:54;;;;;;;1.92;0.85;;;9.10;99.90;;;;;;2605117;54;21329;31
2023/03/11 00:16:30;;;;;;;3.03;1.20;;;9.00;99.90;;;;;;2604878;54;20077;31
2023/03/11 00:19:06;;;;;;;3.03;0.80;;;9.00;99.90;;;;;;2604819;54;20038;31
2023/03/11 00:21:47;;;;;;;;;;;9.00;99.90;;;;;;2605085;54;20085;31
2023/03/11 00:24:23;;;;;;;2.03;0.90;;;9.00;99.90;;;;;;2604964;54;20777;31
2023/03/11 00:26:58;;;;;;;3.22;0.68;;;9.00;99.90;;;;;;2604752;54;20132;31
2023/03/11 00:29:35;;;;;;;2.93;1.77;;;9.00;99.90;;;;;;2604841;54;20030;31
2023/03/11 00:32:12;;;;;;;0.73;0.45;;;9.00;99.90;;;;;;2604793;54;20254;31
2023/03/11 00:34:48;;;;;;;1.75;0.75;;;9.00;99.90;;;;;;2604782;54;20888;31
2023/03/11 00:37:28;;;;;;;2.38;1.02;;;9.00;99.90;;;;;;2604945;54;20846;31
2023/03/11 00:40:07;;;;;;;2.38;1.13;;;8.90;99.90;;;;;;2604975;54;20141;31
2023/03/11 00:42:46;;;;;;;2.80;0.90;;;8.90;99.90;;;;;;2605012;54;20046;31
2023/03/11 00:45:22;;;;;;;1.15;0.55;;;8.90;99.90;;;;;;2604694;54;20849;31
2023/03/11 00:47:57;;;;;;;1.38;0.60;;;8.90;99.90;;;;;;2604794;54;20940;31
2023/03/11 00:50:34;;;;;;;3.15;0.80;;;8.90;99.90;;;;;;2604848;54;20030;31
2023/03/11 00:53:12;;;;;;;2.53;1.10;;;8.90;99.90;;;;;;2604811;54;20362;31
2023/03/11 00:55:46;;;;;;;3.60;0.80;;;8.90;99.90;;;;;;2604689;54;20126;31
2023/03/11 00:58:26;;;;;;;5.68;1.10;;;8.90;99.90;;;;;;2604701;54;20030;31
2023/03/11 01:01:03;;;;;;;2.00;0.90;;;8.90;99.90;;;;;;2604757;54;20082;31
2023/03/11 01:03:38;;;;;;;2.83;1.23;;;8.80;99.90;;;;;;2623221;46;20058;31
2023/03/11 01:06:13;;;;;;;2.15;0.90;;;8.80;99.90;;;;;;2604857;54;20246;31
2023/03/11 01:08:51;;;;;;;2.25;1.20;;;8.80;99.90;;;;;;2622944;46;20946;31
2023/03/11 01:11:27;;;;;;;1.35;0.70;;;8.70;99.90;;;;;;2604592;54;20053;31
2023/03/11 01:14:04;;;;;;;1.98;1.00;;;8.60;99.90;;;;;;2623069;46;20868;31
2023/03/11 01:16:40;;;;;;;0.60;0.35;;;8.50;99.90;;;;;;2622525;46;20890;31
2023/03/11 01:19:15;;;;;;;0.87;0.40;;;8.40;99.90;;;;;;2603783;54;20027;31
2023/03/11 01:21:51;;;;;;;0.10;0.10;;;8.20;99.90;;;;;;2621900;46;20393;31
2023/03/11 01:24:29;;;;;;;0.47;0.20;;;8.10;99.90;;;;;;2603842;54;20042;31
2023/03/11 01:27:03;;;;;;;0.63;0.30;;;8.00;99.90;;;;;;2621842;46;20084;31
2023/03/11 01:29:37;;;;;;;0.50;0.10;;;8.00;99.90;;;;;;2702413;39;21030;31
2023/03/11 01:32:13;;;;;;;0.40;0.10;;;7.90;99.90;;;;;;2603673;54;20030;31
2023/03/11 01:34:47;;;;;;;0.50;0.20;;;7.80;99.90;;;;;;2604030;54;20038;31
2023/03/11 01:37:23;;;;;;;1.90;0.40;;;7.80;99.90;;;;;;2603929;54;20054;31
2023/03/11 01:40:02;;;;;;;0.80;0.45;;;7.70;99.90;;;;;;2603691;54;20034;31
2023/03/11 01:42:37;;;;;;;0.50;0.35;;;7.70;99.90;;;;;;2603879;54;20042;31
2023/03/11 01:45:28;;;;;;;0.77;0.50;;;7.70;99.90;;;;;;2603817;54;20041;31
2023/03/11 01:48:04;;;;;;;1.60;0.63;;;7.60;99.90;;;;;;2622283;46;20042;31
2023/03/11 01:50:41;;;;;;;0.52;0.30;;;7.60;99.90;;;;;;2603746;54;20031;31
2023/03/11 01:53:16;;;;;;;1.85;0.40;;;7.50;99.90;;;;;;2622036;46;20038;31
2023/03/11 01:55:54;;;;;;;0.30;0.20;;;7.50;99.90;;;;;;2603542;54;20140;31
2023/03/11 01:58:33;;;;;;;0.57;0.30;;;7.40;99.90;;;;;;2622175;46;20042;31
2023/03/11 02:01:08;;;;;;;0.60;0.40;;;7.30;99.90;;;;;;2622301;46;20033;31
2023/03/11 02:03:42;;;;;;;0.90;0.40;;;7.30;99.90;;;;;;2603568;54;20038;31
2023/03/11 02:06:19;;;;;;;0.45;0.20;;;7.30;99.90;;;;;;2603640;54;20045;31
2023/03/11 02:08:54;;;;;;;0.45;0.20;;;7.20;99.90;;;;;;2603490;54;20083;31
2023/03/11 02:11:32;;;;;;;0.93;0.35;;;7.20;99.90;;;;;;2603531;54;20852;31
2023/03/11 02:14:08;;;;;;;0.90;0.30;;;7.20;99.90;;;;;;2622295;46;20082;31
2023/03/11 02:16:43;;;;;;;1.15;0.30;;;7.20;99.90;;;;;;2622104;46;20119;31
2023/03/11 02:19:20;;;;;;;0.95;0.30;;;7.20;99.90;;;;;;2603591;54;20791;31
2023/03/11 02:21:57;;;;;;;1.50;0.65;;;7.20;99.90;;;;;;2603660;54;20072;31
2023/03/11 02:24:37;;;;;;;1.00;0.50;;;7.20;99.90;;;;;;2603724;54;20082;31
2023/03/11 02:27:15;;;;;;;1.40;0.60;;;7.20;99.90;;;;;;2603621;54;20066;31
2023/03/11 02:29:53;;;;;;;0.40;0.30;;;7.20;99.90;;;;;;2603311;54;20053;31
2023/03/11 02:32:29;;;;;;;0.80;0.60;;;7.20;99.90;;;;;;2603900;46;20082;31
2023/03/11 02:35:04;;;;;;;1.02;0.45;;;7.10;99.90;;;;;;2603873;54;20050;31
2023/03/11 02:37:39;;;;;;;0.70;0.40;;;7.10;99.90;;;;;;2603697;54;20042;31
2023/03/11 02:40:43;;;;;;;0.82;0.30;;;7.10;99.90;;;;;;2603633;54;20877;31
2023/03/11 02:43:22;;;;;;;0.50;0.20;;;7.00;99.90;;;;;;2603571;54;20026;31
2023/03/11 02:45:57;;;;;;;0.63;0.28;;;6.90;99.90;;;;;;2603438;54;20065;31
2023/03/11 02:48:35;;;;;;;1.02;0.20;;;7.00;99.90;;;;;;2621481;46;20027;31
2023/03/11 02:51:11;;;;;;;0.63;0.27;;;6.90;99.90;;;;;;2603428;54;20034;31
2023/03/11 02:53:48;;;;;;;0.82;0.30;;;6.90;99.90;;;;;;2603708;54;20042;31
2023/03/11 02:56:23;;;;;;;0.35;0.20;;;6.90;99.90;;;;;;2603430;54;20030;31
2023/03/11 02:59:02;;;;;;;;;;;6.90;99.90;;;;;;2603675;54;20060;31
2023/03/11 03:01:36;;;;;;;0.70;0.50;;;6.80;99.90;;;;;;2603589;54;19934;31
2023/03/11 03:04:12;;;;;;;0.65;0.30;;;6.80;99.90;;;;;;2603551;54;20026;31
2023/03/11 03:06:48;;;;;;;1.65;0.50;;;6.70;99.90;;;;;;2622035;46;20046;31
2023/03/11 03:09:24;;;;;;;1.27;0.57;;;6.70;99.90;;;;;;2621399;46;20202;31
2023/03/11 03:11:59;;;;;;;0.90;0.50;;;6.50;99.90;;;;;;2621808;46;20080;31
2023/03/11 03:14:39;;;;;;;0.57;0.47;;;6.40;99.90;;;;;;2603161;54;20129;31
2023/03/11 03:17:14;;;;;;;0.40;0.30;;;6.20;99.90;;;;;;2603484;54;20856;31
2023/03/11 03:19:52;;;;;;;1.75;0.35;;;5.90;99.90;;;;;;2622074;46;20046;31
2023/03/11 03:22:28;;;;;;;0.80;0.30;;;5.70;99.90;;;;;;2603148;54;20927;31
2023/03/11 03:25:03;;;;;;;;;;;5.40;99.90;;;;;;2603675;54;20038;31
2023/03/11 03:27:37;;;;;;;0.95;0.30;;;5.20;99.90;;;;;;2603468;54;19934;31
2023/03/11 03:30:18;;;;;;;1.98;0.10;;;5.10;99.90;;;;;;2603227;54;25151;31
2023/03/11 03:32:53;;;;;;;0.47;0.13;;;5.00;99.90;;;;;;2602455;54;20126;31
2023/03/11 03:35:29;;;;;;;0.30;0.20;;;4.80;99.90;;;;;;2621738;46;19934;31
2023/03/11 03:40:42;;;;;;;0.30;0.10;;;4.60;99.90;;;;;;2603327;54;20022;31
2023/03/11 03:43:17;;;;;;;1.10;0.10;;;4.60;99.90;;;;;;2603528;54;20029;31
2023/03/11 03:46:12;;;;;;;0.60;0.10;;;4.50;99.90;;;;;;2603301;54;20054;31
2023/03/11 03:48:51;;;;;;;0.30;0.00;;;4.40;99.90;;;;;;2621505;46;20049;31
2023/03/11 03:51:26;;;;;;;3.05;0.10;;;4.40;99.90;;;;;;2602893;54;20089;31
2023/03/11 03:54:30;;;;;;;0.10;0.00;;;4.40;99.90;;;;;;2603029;54;20030;31
2023/03/11 03:57:06;;;;;;;0.38;0.13;;;4.20;99.90;;;;;;2603327;54;20045;31
2023/03/11 03:59:48;;;;;;;0.47;0.43;;;4.10;99.90;;;;;;2603183;54;20034;31
2023/03/11 04:02:29;;;;;;;0.38;0.10;;;4.10;99.90;;;;;;2720457;39;21039;31
2023/03/11 04:05:05;;;;;;;0.60;0.40;;;4.00;99.90;;;;;;2603013;54;20763;31
2023/03/11 04:07:38;;;;;;;0.20;0.00;;;3.90;99.90;;;;;;2701824;39;21137;31
2023/03/11 04:10:16;;;;;;;4.82;0.20;;;3.80;99.90;;;;;;2603373;54;20094;31
2023/03/11 04:12:52;;;;;;;0.03;0.03;;;3.80;99.90;;;;;;2603375;54;20027;31
2023/03/11 04:15:28;;;;;;;0.10;0.00;;;3.80;99.90;;;;;;2603298;54;20061;31
2023/03/11 04:18:06;;;;;;;0.10;0.10;;;3.70;99.90;;;;;;2603068;54;20113;31
2023/03/11 04:20:41;;;;;;;0.65;0.20;;;3.70;99.90;;;;;;2603252;54;20884;31
2023/03/11 04:23:17;;;;;;;2.70;0.10;;;3.70;99.90;;;;;;2603100;54;20046;31
2023/03/11 04:25:51;;;;;;;;;;;3.60;99.90;;;;;;2603181;54;20027;31
2023/03/11 04:28:26;;;;;;;0.20;0.08;;;3.50;99.90;;;;;;2621485;47;19954;31
2023/03/11 04:31:02;;;;;;;0.20;0.10;;;3.50;99.90;;;;;;2603184;54;20033;31
2023/03/11 04:33:41;;;;;;;0.47;0.10;;;3.40;99.90;;;;;;2602972;54;20027;31
2023/03/11 04:36:18;;;;;;;1.42;0.20;;;3.30;99.90;;;;;;2603077;54;19961;31
2023/03/11 04:38:52;;;;;;;0.85;0.20;;;3.30;99.90;;;;;;2603008;54;20776;31
2023/03/11 04:41:28;;;;;;;1.57;0.20;;;3.30;99.90;;;;;;2602993;54;20043;31
2023/03/11 04:44:05;;;;;;;0.40;0.20;;;3.20;99.90;;;;;;2602909;54;20305;31
2023/03/11 04:46:41;;;;;;;;;;;3.10;99.90;;;;;;2603112;54;20042;31
2023/03/11 04:49:19;;;;;;;0.10;0.10;;;3.10;99.90;;;;;;2603009;54;20743;31
2023/03/11 04:51:56;;;;;;;0.50;0.20;;;3.00;99.90;;;;;;2603066;54;20893;31
2023/03/11 04:54:31;;;;;;;0.70;0.20;;;3.00;99.90;;;;;;2603879;54;20096;31
2023/03/11 04:57:07;;;;;;;0.57;0.22;;;2.90;99.90;;;;;;2603783;54;20057;31
2023/03/11 04:59:44;;;;;;;0.68;0.30;;;2.90;99.90;;;;;;2603940;54;20026;31
2023/03/11 05:02:22;;;;;;;0.40;0.20;;;2.80;99.90;;;;;;2603668;54;20027;31
2023/03/11 05:05:04;;;;;;;0.80;0.40;;;2.80;99.90;;;;;;2622467;46;20031;31
2023/03/11 05:07:39;;;;;;;2.90;0.32;;;2.70;99.90;;;;;;2603763;54;20046;31
2023/03/11 05:10:21;;;;;;;0.50;0.30;;;2.70;99.90;;;;;;2622190;46;20027;31
2023/03/11 05:12:59;;;;;;;0.40;0.30;;;2.60;99.90;;;;;;2603757;54;20034;31
2023/03/11 05:15:39;;;;;;;0.75;0.52;;;2.60;99.90;;;;;;2603863;54;20869;31
2023/03/11 05:18:16;;;;;;;1.20;0.30;;;2.60;99.90;;;;;;2603781;54;20034;31
2023/03/11 05:20:55;;;;;;;1.10;0.50;;;2.50;99.90;;;;;;2603669;54;20033;31
2023/03/11 05:23:33;;;;;;;0.88;0.60;;;2.40;99.90;;;;;;2603608;54;20123;31
2023/03/11 05:26:08;;;;;;;0.70;0.40;;;2.40;99.90;;;;;;2621479;46;20025;31
2023/03/11 05:28:43;;;;;;;1.20;0.82;;;2.40;99.90;;;;;;2603729;54;20895;31
2023/03/11 05:31:19;;;;;;;1.10;0.40;;;2.40;99.90;;;;;;2603888;54;20058;31
2023/03/11 05:33:55;;;;;;;1.10;0.50;;;2.30;99.90;;;;;;2603730;54;20117;31
2023/03/11 05:36:33;;;;;;;0.55;0.50;;;2.30;99.90;;;;;;2603943;54;20102;31
2023/03/11 05:39:08;;;;;;;1.00;0.60;;;2.30;99.90;;;;;;2603507;54;20779;31
2023/03/11 05:41:43;;;;;;;1.50;0.60;;;2.30;99.90;;;;;;2603590;54;20083;31
2023/03/11 05:44:19;;;;;;;0.93;0.70;;;2.20;99.90;;;;;;2603807;54;20284;31
2023/03/11 05:46:55;;;;;;;2.70;0.90;;;2.30;99.90;;;;;;2603804;54;20877;31
2023/03/11 05:49:30;;;;;;;1.02;0.80;;;2.20;99.90;;;;;;2603622;54;20923;31
2023/03/11 05:52:07;;;;;;;0.90;0.80;;;2.10;99.90;;;;;;2702302;39;22349;31
2023/03/11 05:54:42;;;;;;;2.47;1.33;;;2.10;99.90;;;;;;2603617;54;20073;31
2023/03/11 05:57:18;;;;;;;2.13;1.13;;;2.10;99.90;;;;;;2603550;54;20032;31
2023/03/11 05:59:56;;;;;;;1.60;1.50;;;2.10;99.90;;;;;;2603606;54;20081;31
2023/03/11 06:02:31;;;;;;;1.60;1.27;;;2.10;99.90;;;;;;2603753;54;20033;31
2023/03/11 06:05:06;;;;;;;1.60;1.20;;;2.10;99.90;;;;;;2622115;46;20034;31
2023/03/11 06:07:45;;;;;;;1.30;1.00;;;2.00;99.90;;;;;;2603650;54;20038;31
2023/03/11 06:10:25;;;;;;;1.98;1.15;;;2.00;99.90;;;;;;2603585;54;19935;31
2023/03/11 06:13:00;;;;;;;1.40;1.05;;;1.90;99.90;;;;;;2603546;54;20972;31
2023/03/11 06:15:40;;;;;;;1.92;1.20;;;1.90;99.90;;;;;;2603558;54;20052;31
2023/03/11 06:18:15;;;;;;;2.37;1.30;;;1.90;99.90;;;;;;2603760;54;19942;31
2023/03/11 06:20:50;;;;;;;1.30;0.90;;;1.80;99.90;;;;;;2603677;54;20273;31
2023/03/11 06:23:28;;;;;;;1.20;0.90;;;1.80;99.90;;;;;;2603556;54;20921;31
2023/03/11 06:26:05;;;;;;;1.40;0.80;;;1.80;99.90;;;;;;2622367;46;20822;31
2023/03/11 06:28:46;;;;;;;1.40;1.00;;;1.80;99.90;;;;;;2603677;54;20046;31
2023/03/11 06:31:23;;;;;;;;;;;1.70;99.90;;;;;;2622209;46;20872;31
2023/03/11 06:33:58;;;;;;;1.30;0.90;;;1.70;99.90;;;;;;2603458;54;19941;31
2023/03/11 06:36:35;;;;;;;1.70;1.10;;;1.70;99.90;;;;;;2603662;54;20034;31
2023/03/11 06:39:13;;;;;;;;;;;1.60;99.90;;;;;;2621998;46;20288;31
2023/03/11 06:41:51;;;;;;;2.03;1.35;;;1.60;99.90;;;;;;2603508;54;19954;31
2023/03/11 06:44:27;;;;;;;1.40;1.20;;;1.50;99.90;;;;;;2603513;54;20030;31
2023/03/11 06:47:02;;;;;;;1.90;1.10;;;1.50;99.90;;;;;;2603447;54;20177;31
2023/03/11 06:49:40;;;;;;;2.20;1.40;;;1.50;99.90;;;;;;2603456;54;20060;31
2023/03/11 06:52:14;;;;;;;2.70;1.75;;;1.50;99.90;;;;;;2602659;54;20025;31
2023/03/11 06:54:53;;;;;;;3.65;1.75;;;1.50;99.90;;;;;;2603378;54;20050;31
2023/03/11 06:57:29;;;;;;;3.00;1.73;;;1.50;99.90;;;;;;2603556;54;20090;31
2023/03/11 07:00:13;;;;;;;2.58;1.50;;;1.40;99.90;;;;;;2603458;54;20883;31
2023/03/11 07:02:54;;;;;;;2.85;2.00;;;1.40;99.90;;;;;;2603550;54;20027;31
2023/03/11 07:05:30;;;;;;;2.72;1.80;;;1.50;99.90;;;;;;2603553;54;20054;31
2023/03/11 07:08:12;;;;;;;3.70;1.98;;;1.50;99.90;;;;;;2603690;54;20026;31
2023/03/11 07:11:02;;;;;;;2.78;2.15;;;1.50;99.90;;;;;;2603285;54;20038;31
2023/03/11 07:13:39;;;;;;;3.20;1.73;;;1.40;99.90;;;;;;2603604;54;20031;31
2023/03/11 07:16:16;;;;;;;3.90;2.70;;;1.50;99.90;;;;;;2603186;54;20070;31
2023/03/11 07:18:52;;;;;;;3.55;2.40;;;1.40;99.90;;;;;;2603473;54;20028;31
2023/03/11 07:21:27;;;;;;;4.95;3.00;;;1.40;99.90;;;;;;2622169;46;20070;31
2023/03/11 07:24:03;;;;;;;4.80;2.85;;;1.40;99.90;;;;;;2603489;54;20027;31
2023/03/11 07:26:41;;;;;;;4.95;2.65;;;1.30;99.90;;;;;;2603470;54;20874;31
2023/03/11 07:29:19;;;;;;;4.03;2.33;;;1.30;99.90;;;;;;2603262;54;20034;31
2023/03/11 07:31:55;;;;;;;4.88;3.10;;;1.40;99.90;;;;;;2603246;54;20917;31
2023/03/11 07:34:31;;;;;;;3.95;2.90;;;1.30;99.90;;;;;;2603563;54;20023;31
2023/03/11 07:37:06;;;;;;;3.42;2.40;;;1.20;99.90;;;;;;2603526;54;20105;31
2023/03/11 07:39:42;;;;;;;3.23;1.87;;;1.20;99.90;;;;;;2603147;54;20053;31
2023/03/11 07:42:21;;;;;;;4.63;3.30;;;1.20;99.90;;;;;;2603596;54;21222;31
2023/03/11 07:44:57;;;;;;;4.18;2.60;;;1.20;99.90;;;;;;2603446;54;20863;31
2023/03/11 07:47:32;;;;;;;4.07;2.85;;;1.20;99.90;;;;;;2603343;54;20146;31
2023/03/11 07:50:09;;;;;;;;;;;1.20;99.90;;;;;;2621832;46;20069;31
2023/03/11 07:52:44;;;;;;;3.90;2.35;;;1.20;99.90;;;;;;2603028;54;19942;31
2023/03/11 07:55:21;;;;;;;4.30;2.55;;;1.30;99.90;;;;;;2603285;54;20090;31
2023/03/11 07:57:54;;;;;;;4.17;3.10;;;1.20;99.90;;;;;;2603529;54;20060;31
2023/03/11 08:00:32;;;;;;;4.10;3.00;;;1.30;99.90;;;;;;2621541;46;20834;31
2023/03/11 08:03:07;;;;;;;5.35;3.70;;;1.20;99.90;;;;;;2603350;54;20085;31
2023/03/11 08:05:44;;;;;;;3.70;2.47;;;1.20;99.90;;;;;;2603196;54;20064;31
2023/03/11 08:08:22;;;;;;;4.67;2.80;;;1.20;99.90;;;;;;2603388;54;20851;31
2023/03/11 08:10:57;;;;;;;4.15;3.03;;;1.20;99.90;;;;;;2621914;47;20900;31
2023/03/11 08:13:32;;;;;;;4.05;2.95;;;1.20;99.90;;;;;;2603435;54;20037;31
2023/03/11 08:16:10;;;;;;;5.82;3.70;;;1.20;99.90;;;;;;2602985;54;20058;31
2023/03/11 08:18:46;;;;;;;3.55;2.25;;;1.20;99.90;;;;;;2621589;47;20031;31
2023/03/11 08:21:23;;;;;;;4.88;3.33;;;1.20;99.90;;;;;;2603266;54;20097;31
2023/03/11 08:23:59;;;;;;;4.90;3.55;;;1.20;99.90;;;;;;2603122;54;20887;31
2023/03/11 08:26:34;;;;;;;4.85;3.30;;;1.20;99.90;;;;;;2603339;54;20870;31
2023/03/11 08:29:09;;;;;;;4.50;3.30;;;1.20;99.90;;;;;;2604150;54;20027;31
2023/03/11 08:31:47;;;;;;;4.57;2.85;;;1.20;99.90;;;;;;2604048;54;20042;31
2023/03/11 08:34:22;;;;;;;3.90;2.78;;;1.20;99.90;;;;;;2603989;54;20128;31
2023/03/11 08:36:57;;;;;;;4.65;3.10;;;1.30;99.90;;;;;;2604122;54;20834;31
2023/03/11 08:39:32;;;;;;;6.28;3.35;;;1.30;99.90;;;;;;2603877;54;20074;31
2023/03/11 08:42:08;;;;;;;3.58;2.38;;;1.30;99.90;;;;;;2603827;54;20077;31
2023/03/11 08:44:43;;;;;;;4.30;2.78;;;1.30;99.90;;;;;;2603912;54;20117;31
2023/03/11 08:47:21;;;;;;;3.55;2.42;;;1.40;99.90;;;;;;2603890;54;20030;31
2023/03/11 08:49:56;;;;;;;3.23;2.30;;;1.30;99.90;;;;;;2603862;54;20089;31
2023/03/11 08:52:32;;;;;;;3.00;1.95;;;1.50;99.90;;;;;;2603964;54;20022;31
2023/03/11 08:55:10;;;;;;;3.30;2.50;;;1.60;99.90;;;;;;2702588;39;21058;31
2023/03/11 08:57:45;;;;;;;3.72;2.08;;;1.50;99.90;;;;;;2604097;54;20027;31
2023/03/11 09:00:21;;;;;;;3.15;2.47;;;1.50;99.90;;;;;;2622607;46;20822;31
2023/03/11 09:03:02;;;;;;;3.30;2.17;;;1.50;99.90;;;;;;2702539;39;21182;31
2023/03/11 09:05:38;;;;;;;3.78;2.40;;;1.50;99.90;;;;;;2604156;54;20026;31
2023/03/11 09:08:14;;;;;;;3.20;2.25;;;1.50;99.90;;;;;;2603980;54;20069;31
2023/03/11 09:10:49;;;;;;;3.38;2.47;;;1.40;99.90;;;;;;2603689;54;20062;31
2023/03/11 09:13:26;;;;;;;6.63;3.30;;;1.40;99.90;;;;;;2603639;54;20106;31
2023/03/11 09:16:01;;;;;;;4.32;2.72;;;1.40;99.90;;;;;;2603707;54;20076;31
2023/03/11 09:18:39;;;;;;;3.70;2.70;;;1.40;99.90;;;;;;2603744;54;20052;31
2023/03/11 09:21:16;;;;;;;3.83;2.70;;;1.40;99.90;;;;;;2603654;54;20026;31
2023/03/11 09:23:51;;;;;;;4.60;2.45;;;1.40;99.90;;;;;;2603837;54;20070;31
2023/03/11 09:26:26;;;;;;;2.80;1.77;;;1.50;99.90;;;;;;2603762;54;20150;31
2023/03/11 09:29:01;;;;;;;2.50;1.73;;;1.40;99.90;;;;;;2603499;54;20864;31
2023/03/11 09:31:37;;;;;;;3.10;2.10;;;1.40;99.90;;;;;;2603414;54;20873;31
2023/03/11 09:34:15;;;;;;;3.30;1.70;;;1.50;99.90;;;;;;2603639;54;21164;31
2023/03/11 09:36:53;;;;;;;2.63;1.50;;;1.50;99.90;;;;;;2603870;54;21160;31
2023/03/11 09:39:30;;;;;;;5.45;1.95;;;1.50;99.90;;;;;;2603678;54;20065;31
2023/03/11 09:42:05;;;;;;;2.85;1.55;;;1.50;99.90;;;;;;2622354;46;20042;31
2023/03/11 09:44:43;;;;;;;3.60;1.85;;;1.50;99.90;;;;;;2603599;54;20038;31
2023/03/11 09:47:39;;;;;;;2.20;1.75;;;1.60;99.90;;;;;;2603719;54;20046;31
2023/03/11 09:52:57;;;;;;;2.25;1.45;;;1.60;99.90;;;;;;2622113;46;20030;31
2023/03/11 09:55:50;;;;;;;3.03;1.70;;;1.70;99.90;;;;;;2603541;54;20815;31
2023/03/11 09:58:29;;;;;;;3.75;1.95;;;1.80;99.90;;;;;;2603743;54;20026;31
2023/03/11 10:01:04;;;;;;;3.20;1.92;;;1.80;99.90;;;;;;2603587;54;19935;31
2023/03/11 10:03:41;;;;;;;7.83;3.47;;;1.90;99.90;;;;;;2603804;54;20105;31
2023/03/11 10:06:20;;;;;;;4.90;2.70;;;1.90;99.90;;;;;;2622388;46;21091;31
2023/03/11 10:09:01;;;;;;;3.70;2.03;;;2.00;99.90;;;;;;2621937;46;20046;31
2023/03/11 10:12:08;;;;;;;3.20;1.55;;;2.00;99.90;;;;;;2603692;54;20061;31
2023/03/11 10:14:57;;;;;;;2.50;1.60;;;2.00;99.90;;;;;;2701680;39;20497;31
2023/03/11 10:17:48;;;;;;;4.07;2.63;;;2.00;99.90;;;;;;2621633;46;20030;31
2023/03/11 10:20:23;;;;;;;7.20;3.13;;;2.00;99.90;;;;;;2702399;39;22400;31
2023/03/11 10:23:05;;;;;;;4.82;3.08;;;2.00;99.90;;;;;;2621892;46;20032;31
2023/03/11 10:25:49;;;;;;;4.80;2.85;;;2.00;99.90;;;;;;2622234;46;20918;31
2023/03/11 10:28:25;;;;;;;4.18;2.50;;;2.10;99.90;;;;;;2603566;54;20114;31
2023/03/11 10:31:02;;;;;;;4.53;2.78;;;2.10;99.90;;;;;;2603564;54;20033;31
2023/03/11 10:33:39;;;;;;;3.05;1.75;;;2.00;99.90;;;;;;2603716;54;20053;31
2023/03/11 10:36:17;;;;;;;6.18;2.70;;;2.10;99.90;;;;;;2603497;54;20150;31
2023/03/11 10:38:53;;;;;;;3.17;1.98;;;2.10;99.90;;;;;;2603648;54;20046;31
2023/03/11 10:41:32;;;;;;;;;;;2.10;99.90;;;;;;2603964;54;20046;31
2023/03/11 10:44:11;;;;;;;3.17;1.95;;;2.30;99.90;;;;;;2621646;46;20752;31
2023/03/11 10:46:47;;;;;;;3.80;2.37;;;2.20;99.90;;;;;;2621286;46;20579;31
2023/03/11 10:49:22;;;;;;;5.05;1.48;;;2.30;99.90;;;;;;2603233;54;20941;31
2023/03/11 10:51:57;;;;;;;4.53;2.13;;;2.30;99.90;;;;;;2603349;54;20823;31
2023/03/11 10:54:34;;;;;;;3.30;1.75;;;2.50;99.90;;;;;;2603574;54;20949;31
2023/03/11 10:57:22;;;;;;;3.92;2.55;;;2.40;99.90;;;;;;2603401;54;20876;31
2023/03/11 10:59:57;;;;;;;3.73;2.43;;;2.40;99.90;;;;;;2622123;46;20117;31
2023/03/11 11:02:31;;;;;;;5.55;2.80;;;2.40;99.90;;;;;;2773569;31;21370;31
2023/03/11 11:05:10;;;;;;;4.90;2.90;;;2.30;99.90;;;;;;2622008;46;20053;31
2023/03/11 11:07:45;;;;;;;4.10;2.65;;;2.20;99.90;;;;;;2603349;54;20152;31
2023/03/11 11:10:21;;;;;;;3.95;2.30;;;2.20;99.90;;;;;;2603441;54;20907;31
2023/03/11 11:13:01;;;;;;;4.20;2.70;;;2.20;99.90;;;;;;2621880;46;20089;31
2023/03/11 11:15:37;;;;;;;4.38;3.00;;;2.30;99.90;;;;;;2603569;54;20885;31
2023/03/11 11:18:18;;;;;;;7.17;3.30;;;2.40;99.90;;;;;;2621732;46;20080;31
2023/03/11 11:21:11;;;;;;;7.32;3.63;;;2.60;99.90;;;;;;2603333;54;20277;31
2023/03/11 11:23:48;;;;;;;6.53;2.58;;;2.80;99.90;;;;;;2603338;54;20105;31
2023/03/11 11:26:23;;;;;;;4.80;2.55;;;3.00;99.90;;;;;;2602634;54;20030;31
2023/03/11 11:29:15;;;;;;;5.20;2.85;;;3.00;99.90;;;;;;2603298;54;20892;31
2023/03/11 11:31:50;;;;;;;6.30;3.53;;;2.80;99.90;;;;;;2603134;54;20046;31
2023/03/11 11:34:31;;;;;;;5.78;3.55;;;2.70;99.90;;;;;;2603205;54;20085;31
2023/03/11 11:37:07;;;;;;;2.58;1.80;;;2.70;99.90;;;;;;2603157;54;20034;31
2023/03/11 11:39:42;;;;;;;;;;;2.80;99.90;;;;;;2603464;54;20093;31
2023/03/11 11:42:17;;;;;;;4.38;2.60;;;2.80;99.90;;;;;;2603886;46;20081;31
2023/03/11 11:44:58;;;;;;;2.93;2.17;;;3.00;99.90;;;;;;2603159;54;20101;31
2023/03/11 11:47:35;;;;;;;5.57;2.58;;;3.10;99.90;;;;;;2603370;54;20023;31
2023/03/11 11:50:16;;;;;;;6.05;2.55;;;3.20;99.90;;;;;;2621680;46;20030;31
2023/03/11 11:52:53;;;;;;;4.15;2.60;;;3.30;99.90;;;;;;2621664;46;20098;31
2023/03/11 11:55:28;;;;;;;3.45;2.35;;;3.40;99.90;;;;;;2603191;54;20052;31
2023/03/11 11:58:04;;;;;;;4.85;2.70;;;3.20;99.90;;;;;;2603361;54;20031;31
2023/03/11 12:00:46;;;;;;;5.70;3.20;;;3.20;99.90;;;;;;2603131;54;20115;31
2023/03/11 12:03:42;;;;;;;4.25;1.60;;;3.30;99.90;;;;;;2603235;54;20026;31
2023/03/11 12:06:19;;;;;;;4.95;2.50;;;3.20;99.90;;;;;;2603539;54;20030;31
2023/03/11 12:08:59;;;;;;;5.17;3.20;;;3.20;99.90;;;;;;2603137;54;20089;31
2023/03/11 12:11:36;;;;;;;4.82;2.80;;;3.30;99.90;;;;;;2603486;54;19958;31
2023/03/11 12:14:16;;;;;;;4.72;2.80;;;3.20;99.90;;;;;;2603209;54;20085;31
2023/03/11 12:16:58;;;;;;;5.43;2.95;;;3.20;99.90;;;;;;2603234;54;20973;31
2023/03/11 12:19:42;;;;;;;5.10;2.40;;;3.20;99.90;;;;;;2603312;54;20022;31
2023/03/11 12:22:55;;;;;;;3.00;2.03;;;3.20;99.90;;;;;;2603329;54;20051;31
2023/03/11 12:25:33;;;;;;;3.72;2.47;;;3.20;99.90;;;;;;2603325;54;20793;31
2023/03/11 12:28:16;;;;;;;2.85;1.60;;;3.20;99.90;;;;;;2602936;54;20042;31
2023/03/11 12:30:52;;;;;;;7.45;1.75;;;3.30;99.90;;;;;;2603187;54;20026;31
2023/03/11 12:33:33;;;;;;;2.90;1.60;;;3.30;99.90;;;;;;2603142;54;20034;31
2023/03/11 12:36:09;;;;;;;2.35;1.50;;;3.40;99.90;;;;;;2602910;54;20032;31
2023/03/11 12:38:48;;;;;;;4.05;2.40;;;3.50;99.90;;;;;;2603189;54;20907;31
2023/03/11 12:41:32;;;;;;;4.00;1.52;;;3.50;99.90;;;;;;2602909;54;20116;31
2023/03/11 12:44:22;;;;;;;26.42;6.88;;;3.60;99.90;;;;;;2602961;54;20891;31
2023/03/11 12:47:04;;;;;;;3.40;2.10;;;3.80;99.90;;;;;;2603194;54;20849;31
2023/03/11 12:49:43;;;;;;;3.08;1.35;;;4.20;99.90;;;;;;2621360;47;20038;31
2023/03/11 12:52:26;;;;;;;4.28;2.20;;;4.00;99.90;;;;;;2602744;54;20053;31
2023/03/11 12:55:36;;;;;;;3.38;1.90;;;3.60;99.90;;;;;;2621630;47;20026;31
2023/03/11 12:58:33;;;;;;;3.50;2.50;;;3.00;99.90;;;;;;2621391;47;20022;31
2023/03/11 13:01:23;;;;;;;6.55;2.78;;;2.70;99.90;;;;;;2602947;54;20223;31
2023/03/11 13:04:06;;;;;;;6.95;3.90;;;2.60;99.90;;;;;;2602762;54;20046;31
2023/03/11 13:07:00;;;;;;;6.30;3.55;;;2.50;99.90;;;;;;2602893;54;20086;31
2023/03/11 13:09:35;;;;;;;5.10;3.20;;;2.20;99.90;;;;;;2602991;54;20027;31
2023/03/11 13:12:42;;;;;;;8.05;3.25;;;2.10;99.90;;;;;;2602901;54;20831;31
2023/03/11 13:15:41;;;;;;;5.13;3.43;;;2.00;99.90;;;;;;2603907;54;21049;31
2023/03/11 13:18:19;;;;;;;6.03;2.78;;;1.90;99.90;;;;;;2603576;54;20996;31
2023/03/11 13:21:00;;;;;;;4.00;2.88;;;1.90;99.90;;;;;;2603608;54;20803;31
2023/03/11 13:23:39;;;;;;;4.60;3.07;;;1.90;99.90;;;;;;2603122;54;20057;31
2023/03/11 13:26:32;;;;;;;5.45;2.85;;;1.90;99.90;;;;;;2603844;54;20075;31
2023/03/11 13:29:05;;;;;;;7.47;4.03;;;1.90;99.90;;;;;;2603718;54;20913;31
2023/03/11 13:31:46;;;;;;;4.15;3.30;;;1.90;99.90;;;;;;2603664;54;20846;31
2023/03/11 13:34:25;;;;;;;6.00;3.50;;;1.90;99.90;;;;;;2603674;54;20022;31
2023/03/11 13:37:11;;;;;;;6.10;3.50;;;1.90;99.90;;;;;;2622325;46;20030;31
2023/03/11 13:42:29;;;;;;;5.30;3.33;;;1.90;99.90;;;;;;2622183;46;20050;31
2023/03/11 13:45:05;;;;;;;4.05;2.85;;;1.90;99.90;;;;;;2603761;54;20031;31
2023/03/11 13:47:43;;;;;;;5.90;2.37;;;2.00;99.90;;;;;;2603606;54;20026;31
2023/03/11 13:50:18;;;;;;;10.97;4.33;;;1.90;99.90;;;;;;2603829;54;20921;31
2023/03/11 13:52:55;;;;;;;14.60;4.35;;;2.20;99.90;;;;;;2603553;54;21169;31
2023/03/11 13:55:36;;;;;;;3.65;2.42;;;2.30;99.90;;;;;;2603810;54;20861;31
2023/03/11 13:58:10;;;;;;;7.93;3.13;;;2.30;99.90;;;;;;2622074;46;20026;31
2023/03/11 14:00:52;;;;;;;4.05;1.80;;;2.40;99.90;;;;;;2603831;54;20089;31
2023/03/11 14:03:29;;;;;;;4.13;2.28;;;2.80;99.90;;;;;;2603651;54;20022;31
2023/03/11 14:06:05;;;;;;;4.57;2.83;;;2.60;99.90;;;;;;2603565;54;20019;31
2023/03/11 14:08:42;;;;;;;7.03;3.00;;;2.50;99.90;;;;;;2603497;54;20942;31
2023/03/11 14:11:19;;;;;;;4.60;2.10;;;2.40;99.90;;;;;;2603485;54;20026;31
2023/03/11 14:13:54;;;;;;;;;;;2.20;99.90;;;;;;2603844;54;20050;31
2023/03/11 14:16:42;;;;;;;4.65;2.15;;;2.20;99.90;;;;;;2619742;46;19943;31